Airfield :
LOGIN :

Register | Disclaimer

   EN    FR    IT 

 










Legend :    VFR   Marginal VFR   IFR   Intensive IFR   Very Intensive IFR
Visi :
Ceiling :
>= 8 km
>= 3000ft
5 to 8 km
1000 to 3000 ft
1500m to 5 km
500 to 1000 ft
800 to 1500m
200 to 500 ft
< 800m
< 200 ft
Symbols :   Thunderstorms  Fog  Heavy snow  Heavy precipitations  Wind > 20 kt
SIGMETs :     Misc.  Thunderstorms  Icing  Turbulence  Mountain Waves  Volcanic Ashes






- Airport Elevation : 47 ft
- IATA code : BMA


ESSB - Stockholm-Bromma

CURRENT METAR :
  • 191950Z 28004KT CAVOK 21/14 Q1015

EXPIRED METARs :
  • 191920Z 28007KT CAVOK 22/14 Q1015
  • 191850Z 28006KT CAVOK 23/13 Q1014
  • 191820Z 26005KT CAVOK 24/13 Q1014
  • 191750Z 26007KT CAVOK 24/12 Q1014
  • 191720Z 27008KT CAVOK 24/13 Q1014
  • 191650Z 30008KT 280V340 CAVOK 25/12 Q1014
  • 191620Z 31010KT CAVOK 25/13 Q1015
  • 191550Z 29009KT CAVOK 24/13 Q1015
  • 191520Z 29008KT CAVOK 25/13 Q1015

TAF TAF ESSB
Valid from the 19 at 18:00 until the 19 at 21:00 UTC


191730Z 1918/1921 29010KT CAVOK
BECMG 1919/1921 VRB02KT



MET'MAP, your aeronautical weather chart ! - Copyright ORBIFLY December 2007 - Disclaimer

ORBIFLY MET'MAP TEAM :

Programming & Development : Alexandra Zaïnal
Original concept : Baudouin d'Aumeries
Technical & hardware support : Manuel Goepfert
Assistance : Marc-Olivier Méhu




SOURCES & CREDITS :

   NOAA